createdAt,value
2019-05-19T00:00:31.283Z,99.90
2019-05-19T00:02:58.293Z,99.90
2019-05-19T00:05:25.236Z,99.90
2019-05-19T00:07:52.107Z,99.90
2019-05-19T00:10:19.059Z,99.90
2019-05-19T00:12:45.817Z,99.90
2019-05-19T00:15:12.995Z,99.90
2019-05-19T00:17:39.971Z,99.90
2019-05-19T00:20:08.764Z,99.90
2019-05-19T00:22:35.746Z,99.90
2019-05-19T00:25:03.583Z,99.90
2019-05-19T00:27:30.342Z,99.90
2019-05-19T00:29:57.359Z,99.90
2019-05-19T00:32:24.171Z,99.90
2019-05-19T00:34:51.089Z,99.90
2019-05-19T00:37:17.849Z,99.90
2019-05-19T00:39:44.643Z,99.90
2019-05-19T00:42:11.556Z,99.90
2019-05-19T00:44:38.327Z,99.90
2019-05-19T00:47:05.194Z,99.90
2019-05-19T00:49:40.984Z,99.90
2019-05-19T00:52:00.678Z,99.90
2019-05-19T00:54:27.562Z,99.90
2019-05-19T00:56:54.869Z,99.90
2019-05-19T00:59:23.291Z,99.90
2019-05-19T01:01:50.267Z,99.90
2019-05-19T01:04:17.482Z,99.90
2019-05-19T01:06:44.475Z,99.90
2019-05-19T01:09:11.567Z,99.90
2019-05-19T01:11:38.408Z,99.90
2019-05-19T01:14:05.304Z,99.90
2019-05-19T01:16:32.083Z,99.90
2019-05-19T01:18:58.827Z,99.90
2019-05-19T01:21:26.041Z,99.90
2019-05-19T01:23:53.052Z,99.90
2019-05-19T01:26:19.967Z,99.90
2019-05-19T01:28:46.945Z,99.90
2019-05-19T01:31:13.802Z,99.90
2019-05-19T01:33:40.655Z,99.90
2019-05-19T01:36:08.530Z,99.90
2019-05-19T01:38:35.429Z,99.90
2019-05-19T01:41:02.316Z,99.90
2019-05-19T01:43:29.217Z,99.90
2019-05-19T01:45:55.967Z,99.90
2019-05-19T01:48:22.833Z,99.90
2019-05-19T01:50:49.674Z,99.90
2019-05-19T01:53:16.687Z,99.90
2019-05-19T01:55:43.542Z,99.90
2019-05-19T01:58:10.671Z,99.90
2019-05-19T02:00:38.736Z,99.90
2019-05-19T02:03:05.491Z,99.90
2019-05-19T02:05:32.435Z,99.90
2019-05-19T02:07:59.429Z,99.90
2019-05-19T02:10:26.280Z,99.90
2019-05-19T02:12:53.024Z,99.90
2019-05-19T02:15:20.028Z,99.90
2019-05-19T02:17:46.875Z,99.90
2019-05-19T02:20:14.726Z,99.90
2019-05-19T02:22:41.763Z,99.90
2019-05-19T02:25:08.992Z,99.90
2019-05-19T02:27:35.875Z,99.90
2019-05-19T02:30:03.785Z,99.90
2019-05-19T02:32:30.503Z,99.90
2019-05-19T02:34:57.492Z,99.90
2019-05-19T02:37:24.355Z,99.90
2019-05-19T02:39:51.367Z,99.90
2019-05-19T02:42:19.903Z,99.90
2019-05-19T02:44:49.140Z,99.90
2019-05-19T02:47:18.119Z,99.90
2019-05-19T02:49:45.184Z,99.90
2019-05-19T02:52:13.055Z,99.90
2019-05-19T02:54:40.311Z,99.90
2019-05-19T02:57:07.632Z,99.90
2019-05-19T02:59:34.788Z,99.90
2019-05-19T03:02:08.264Z,99.90
2019-05-19T03:04:35.209Z,99.90
2019-05-19T03:07:01.917Z,99.90
2019-05-19T03:09:28.930Z,99.90
2019-05-19T03:11:55.636Z,99.90
2019-05-19T03:14:22.604Z,99.90
2019-05-19T03:16:49.520Z,99.90
2019-05-19T03:19:16.492Z,99.90
2019-05-19T03:21:43.251Z,99.90
2019-05-19T03:24:10.116Z,99.90
2019-05-19T03:26:37.068Z,99.90
2019-05-19T03:29:03.933Z,99.90
2019-05-19T03:31:38.065Z,99.90
2019-05-19T03:34:05.016Z,99.90
2019-05-19T03:36:32.104Z,99.90
2019-05-19T03:38:58.836Z,99.90
2019-05-19T03:41:25.719Z,99.90
2019-05-19T03:43:52.597Z,99.90
2019-05-19T03:46:19.363Z,99.90
2019-05-19T03:48:46.116Z,99.90
2019-05-19T03:51:29.461Z,99.90
2019-05-19T03:53:41.747Z,99.90
2019-05-19T03:56:08.604Z,99.90
2019-05-19T03:58:35.395Z,99.90
2019-05-19T04:01:02.387Z,99.90
2019-05-19T04:03:29.102Z,99.90
2019-05-19T04:05:55.823Z,99.90
2019-05-19T04:08:22.828Z,99.90
2019-05-19T04:10:49.593Z,99.90
2019-05-19T04:13:16.447Z,99.90
2019-05-19T04:15:43.443Z,99.90
2019-05-19T04:18:10.518Z,99.90
2019-05-19T04:20:37.665Z,99.90
2019-05-19T04:23:04.633Z,99.90
2019-05-19T04:25:31.387Z,99.90
2019-05-19T04:27:58.134Z,99.90
2019-05-19T04:30:24.957Z,99.90
2019-05-19T04:32:52.016Z,99.90
2019-05-19T04:35:19.001Z,99.90
2019-05-19T04:37:45.854Z,99.90
2019-05-19T04:40:13.084Z,99.90
2019-05-19T04:42:40.058Z,99.90
2019-05-19T04:45:07.059Z,99.90
2019-05-19T04:47:34.172Z,99.90
2019-05-19T04:50:01.021Z,99.90
2019-05-19T04:52:28.008Z,99.90
2019-05-19T04:54:54.747Z,99.90
2019-05-19T04:57:21.484Z,99.90
2019-05-19T04:59:48.306Z,99.90
2019-05-19T05:02:15.203Z,99.90
2019-05-19T05:04:41.948Z,99.90
2019-05-19T05:07:08.801Z,99.90
2019-05-19T05:09:35.546Z,99.90
2019-05-19T05:12:02.304Z,99.90
2019-05-19T05:14:29.300Z,99.90
2019-05-19T05:16:56.119Z,99.90
2019-05-19T05:19:22.988Z,99.90
2019-05-19T05:21:49.861Z,99.90
2019-05-19T05:24:16.732Z,99.90
2019-05-19T05:26:43.483Z,99.90
2019-05-19T05:29:10.341Z,99.90
2019-05-19T05:31:37.207Z,99.90
2019-05-19T05:34:04.129Z,99.90
2019-05-19T05:36:30.999Z,99.90
2019-05-19T05:38:57.755Z,99.90
2019-05-19T05:41:24.645Z,99.90
2019-05-19T05:43:51.441Z,99.90
2019-05-19T05:46:18.407Z,99.90
2019-05-19T05:48:45.134Z,99.90
2019-05-19T05:51:12.008Z,99.90
2019-05-19T05:53:38.871Z,99.90
2019-05-19T05:56:05.923Z,99.90
2019-05-19T05:58:32.824Z,99.90
2019-05-19T06:00:59.579Z,99.90
2019-05-19T06:03:26.444Z,99.90
2019-05-19T06:05:53.247Z,99.90
2019-05-19T06:08:20.177Z,99.90
2019-05-19T06:10:47.038Z,99.90
2019-05-19T06:13:13.761Z,99.90
2019-05-19T06:15:40.535Z,99.90
2019-05-19T06:18:07.311Z,99.90
2019-05-19T06:20:34.079Z,99.90
2019-05-19T06:23:00.807Z,99.90
2019-05-19T06:25:27.993Z,99.90
2019-05-19T06:27:54.967Z,99.90
2019-05-19T06:30:22.071Z,99.90
2019-05-19T06:32:50.815Z,99.90
2019-05-19T06:35:17.751Z,99.90
2019-05-19T06:37:44.715Z,99.90
2019-05-19T06:40:12.292Z,99.90
2019-05-19T06:42:39.145Z,99.90
2019-05-19T06:45:06.695Z,99.90
2019-05-19T06:47:33.463Z,99.90
2019-05-19T06:50:00.389Z,99.90
2019-05-19T06:52:27.111Z,99.90
2019-05-19T06:54:54.179Z,99.90
2019-05-19T06:57:21.055Z,99.90
2019-05-19T06:59:47.899Z,99.90
2019-05-19T07:02:14.657Z,99.90
2019-05-19T07:04:41.704Z,99.90
2019-05-19T07:07:08.607Z,99.90
2019-05-19T07:09:35.417Z,99.90
2019-05-19T07:12:02.521Z,99.90
2019-05-19T07:14:29.484Z,99.90
2019-05-19T07:16:56.243Z,99.90
2019-05-19T07:19:23.242Z,99.90
2019-05-19T07:21:50.179Z,99.90
2019-05-19T07:24:17.124Z,99.90
2019-05-19T07:26:43.903Z,99.90
2019-05-19T07:29:10.645Z,99.90
2019-05-19T07:31:37.374Z,99.90
2019-05-19T07:34:04.354Z,99.90
2019-05-19T07:36:31.330Z,99.90
2019-05-19T07:38:58.071Z,99.90
2019-05-19T07:41:24.823Z,99.90
2019-05-19T07:43:51.548Z,99.90
2019-05-19T07:46:18.523Z,99.90
2019-05-19T07:48:45.283Z,99.90
2019-05-19T07:51:12.261Z,99.90
2019-05-19T07:53:43.152Z,99.90
2019-05-19T07:56:07.962Z,99.90
2019-05-19T07:58:34.733Z,99.90
2019-05-19T08:01:01.572Z,99.90
2019-05-19T08:03:28.374Z,99.90
2019-05-19T08:05:57.127Z,99.90
2019-05-19T08:08:24.020Z,99.90
2019-05-19T08:10:50.907Z,99.90
2019-05-19T08:13:17.783Z,99.90
2019-05-19T08:15:44.691Z,99.90
2019-05-19T08:18:11.571Z,99.90
2019-05-19T08:20:38.316Z,99.90
2019-05-19T08:23:05.103Z,99.90
2019-05-19T08:25:32.175Z,99.90
2019-05-19T08:28:07.591Z,99.90
2019-05-19T08:30:27.937Z,99.90
2019-05-19T08:32:54.824Z,99.90
2019-05-19T08:35:21.727Z,99.90
2019-05-19T08:37:48.568Z,99.90
2019-05-19T08:40:15.614Z,99.90
2019-05-19T08:42:42.352Z,99.90
2019-05-19T08:45:09.239Z,99.90
2019-05-19T08:47:36.173Z,99.90
2019-05-19T08:50:03.711Z,99.00
2019-05-19T08:52:30.582Z,97.60
2019-05-19T08:54:57.356Z,97.10
2019-05-19T08:57:24.199Z,95.80
2019-05-19T08:59:50.963Z,94.30
2019-05-19T09:02:17.719Z,94.10
2019-05-19T09:04:44.490Z,93.10
2019-05-19T09:07:11.367Z,93.60
2019-05-19T09:09:38.265Z,91.10
2019-05-19T09:12:05.287Z,90.20
2019-05-19T09:14:32.066Z,87.40
2019-05-19T09:16:58.912Z,87.70
2019-05-19T09:19:26.241Z,86.60
2019-05-19T09:21:53.126Z,84.90
2019-05-19T09:24:30.015Z,81.70
2019-05-19T09:26:48.808Z,80.40
2019-05-19T09:29:15.823Z,78.30
2019-05-19T09:31:42.687Z,76.60
2019-05-19T09:34:09.571Z,77.60
2019-05-19T09:36:36.511Z,76.10
2019-05-19T09:39:05.396Z,75.80
2019-05-19T09:41:32.364Z,74.80
2019-05-19T09:43:59.387Z,75.30
2019-05-19T09:46:26.271Z,75.70
2019-05-19T09:49:11.281Z,77.50
2019-05-19T09:51:38.053Z,77.60
2019-05-19T09:54:05.050Z,76.60
2019-05-19T09:56:32.193Z,77.80
2019-05-19T09:58:59.291Z,79.00
2019-05-19T10:01:26.072Z,79.90
2019-05-19T10:03:52.967Z,76.50
2019-05-19T10:06:19.715Z,73.40
2019-05-19T10:08:58.235Z,73.20
2019-05-19T10:11:58.315Z,74.30
2019-05-19T10:14:25.168Z,75.90
2019-05-19T10:16:52.147Z,73.40
2019-05-19T10:19:19.054Z,73.60
2019-05-19T10:21:46.035Z,69.40
2019-05-19T10:24:12.880Z,65.00
2019-05-19T10:26:39.635Z,65.10
2019-05-19T10:29:06.580Z,63.60
2019-05-19T10:31:33.440Z,63.40
2019-05-19T10:34:00.182Z,60.40
2019-05-19T10:36:27.160Z,61.40
2019-05-19T10:38:53.938Z,60.30
2019-05-19T10:41:20.871Z,61.10
2019-05-19T10:43:49.895Z,62.20
2019-05-19T10:46:16.895Z,63.50
2019-05-19T10:48:43.738Z,60.80
2019-05-19T10:51:10.523Z,57.90
2019-05-19T10:53:37.538Z,56.80
2019-05-19T10:56:04.679Z,54.60
2019-05-19T10:58:31.881Z,57.00
2019-05-19T11:00:59.031Z,56.50
2019-05-19T11:03:26.202Z,56.20
2019-05-19T11:05:53.150Z,56.90
2019-05-19T11:08:20.241Z,57.20
2019-05-19T11:10:47.410Z,58.60
2019-05-19T11:13:14.441Z,57.50
2019-05-19T11:15:41.280Z,55.50
2019-05-19T11:18:08.261Z,53.90
2019-05-19T11:20:35.036Z,54.50
2019-05-19T11:23:01.822Z,52.40
2019-05-19T11:25:33.935Z,52.00
2019-05-19T11:27:57.902Z,51.80
2019-05-19T11:30:25.054Z,51.00
2019-05-19T11:32:52.117Z,50.00
2019-05-19T11:35:19.009Z,50.10
2019-05-19T11:37:45.923Z,51.30
2019-05-19T11:40:12.896Z,51.40
2019-05-19T11:42:39.923Z,52.00
2019-05-19T11:45:07.179Z,50.30
2019-05-19T11:47:33.927Z,49.50
2019-05-19T11:50:00.859Z,50.00
2019-05-19T11:52:27.737Z,47.90
2019-05-19T11:54:54.763Z,46.50
2019-05-19T11:57:21.653Z,46.80
2019-05-19T11:59:48.479Z,47.50
2019-05-19T12:02:15.455Z,46.60
2019-05-19T12:04:42.218Z,46.50
2019-05-19T12:07:08.964Z,47.20
2019-05-19T12:09:35.988Z,46.10
2019-05-19T12:12:03.008Z,44.80
2019-05-19T12:14:29.795Z,45.00
2019-05-19T12:16:56.650Z,45.20
2019-05-19T12:19:23.691Z,46.50
2019-05-19T12:21:50.470Z,46.10
2019-05-19T12:24:17.308Z,45.80
2019-05-19T12:26:44.255Z,46.20
2019-05-19T12:29:10.987Z,48.30
2019-05-19T12:31:37.781Z,50.40
2019-05-19T12:34:04.706Z,51.50
2019-05-19T12:36:33.170Z,50.30
2019-05-19T12:39:00.427Z,49.50
2019-05-19T12:41:27.275Z,50.50
2019-05-19T12:43:54.213Z,49.00
2019-05-19T12:46:21.061Z,48.50
2019-05-19T12:48:47.910Z,61.20
2019-05-19T12:51:14.943Z,66.00
2019-05-19T12:53:41.819Z,68.30
2019-05-19T12:56:08.591Z,69.30
2019-05-19T12:58:35.618Z,67.10
2019-05-19T13:01:02.539Z,69.00
2019-05-19T13:03:29.379Z,69.90
2019-05-19T13:05:56.159Z,66.00
2019-05-19T13:08:22.911Z,66.30
2019-05-19T13:10:49.648Z,65.00
2019-05-19T13:13:16.584Z,60.30
2019-05-19T13:15:43.347Z,59.70
2019-05-19T13:18:10.299Z,60.10
2019-05-19T13:20:37.151Z,64.40
2019-05-19T13:23:04.121Z,66.60
2019-05-19T13:25:31.028Z,65.50
2019-05-19T13:27:57.883Z,63.00
2019-05-19T13:30:24.741Z,58.20
2019-05-19T13:32:51.557Z,56.00
2019-05-19T13:35:18.852Z,57.30
2019-05-19T13:37:45.727Z,58.90
2019-05-19T13:40:13.026Z,59.00
2019-05-19T13:42:39.871Z,58.10
2019-05-19T13:45:07.364Z,57.40
2019-05-19T13:47:34.251Z,58.70
2019-05-19T13:50:01.215Z,57.50
2019-05-19T13:52:28.158Z,56.40
2019-05-19T13:54:54.935Z,58.40
2019-05-19T13:57:21.943Z,59.40
2019-05-19T13:59:48.982Z,62.40
2019-05-19T14:02:15.939Z,63.90
2019-05-19T14:04:42.707Z,64.80
2019-05-19T14:07:09.647Z,63.40
2019-05-19T14:09:36.543Z,65.40
2019-05-19T14:12:03.591Z,63.00
2019-05-19T14:14:30.343Z,64.80
2019-05-19T14:16:57.304Z,66.50
2019-05-19T14:19:24.368Z,66.60
2019-05-19T14:21:51.160Z,65.60
2019-05-19T14:24:18.214Z,65.10
2019-05-19T14:26:45.122Z,66.50
2019-05-19T14:29:12.103Z,64.20
2019-05-19T14:31:39.045Z,63.30
2019-05-19T14:34:05.777Z,63.60
2019-05-19T14:36:32.711Z,63.30
2019-05-19T14:38:59.859Z,62.30
2019-05-19T14:41:33.414Z,60.70
2019-05-19T14:43:56.495Z,58.90
2019-05-19T14:46:23.455Z,57.20
2019-05-19T14:48:50.303Z,56.00
2019-05-19T14:51:17.071Z,57.30
2019-05-19T14:53:43.955Z,61.00
2019-05-19T14:56:10.811Z,65.50
2019-05-19T14:58:37.539Z,66.10
2019-05-19T15:01:04.571Z,65.70
2019-05-19T15:03:31.312Z,64.80
2019-05-19T15:05:58.169Z,64.60
2019-05-19T15:08:24.959Z,64.70
2019-05-19T15:10:51.856Z,62.40
2019-05-19T15:13:18.730Z,62.30
2019-05-19T15:15:45.635Z,58.20
2019-05-19T15:18:12.495Z,59.50
2019-05-19T15:20:39.447Z,61.60
2019-05-19T15:23:06.314Z,63.10
2019-05-19T15:25:33.066Z,60.80
2019-05-19T15:28:04.404Z,59.50
2019-05-19T15:30:28.734Z,60.40
2019-05-19T15:32:55.492Z,58.60
2019-05-19T15:35:22.215Z,57.10
2019-05-19T15:37:48.979Z,61.60
2019-05-19T15:40:15.959Z,63.90
2019-05-19T15:42:42.716Z,60.60
2019-05-19T15:45:11.755Z,55.70
2019-05-19T15:47:38.577Z,57.10
2019-05-19T15:50:05.805Z,59.00
2019-05-19T15:52:32.564Z,61.80
2019-05-19T15:54:59.510Z,60.50
2019-05-19T15:57:28.603Z,67.10
2019-05-19T15:59:55.226Z,70.10
2019-05-19T16:02:22.129Z,72.50
2019-05-19T16:04:48.991Z,74.10
2019-05-19T16:07:15.892Z,75.00
2019-05-19T16:09:42.763Z,75.60
2019-05-19T16:12:09.670Z,77.00
2019-05-19T16:14:36.493Z,77.90
2019-05-19T16:17:03.620Z,78.70
2019-05-19T16:19:30.352Z,79.10
2019-05-19T16:21:57.332Z,76.00
2019-05-19T16:24:24.056Z,77.50
2019-05-19T16:26:51.103Z,74.50
2019-05-19T16:29:17.859Z,74.70
2019-05-19T16:31:44.879Z,75.00
2019-05-19T16:34:11.779Z,77.30
2019-05-19T16:36:38.734Z,77.10
2019-05-19T16:39:06.282Z,78.80
2019-05-19T16:41:33.249Z,81.30
2019-05-19T16:44:00.128Z,82.40
2019-05-19T16:46:26.873Z,83.90
2019-05-19T16:48:53.810Z,85.30
2019-05-19T16:51:20.766Z,87.40
2019-05-19T16:53:49.969Z,90.90
2019-05-19T16:56:16.746Z,93.50
2019-05-19T16:58:45.707Z,95.40
2019-05-19T17:01:12.744Z,97.40
2019-05-19T17:03:39.815Z,98.30
2019-05-19T17:06:06.531Z,99.70
2019-05-19T17:08:33.622Z,99.90
2019-05-19T17:11:00.639Z,99.90
2019-05-19T17:13:27.852Z,99.90
2019-05-19T17:15:54.632Z,99.90
2019-05-19T17:18:21.388Z,99.90
2019-05-19T17:20:48.139Z,99.90
2019-05-19T17:23:14.979Z,99.90
2019-05-19T17:25:41.981Z,99.90
2019-05-19T17:28:09.109Z,99.90
2019-05-19T17:30:36.280Z,99.90
2019-05-19T17:33:03.652Z,99.90
2019-05-19T17:35:30.851Z,99.90
2019-05-19T17:37:57.839Z,99.90
2019-05-19T17:40:24.951Z,99.90
2019-05-19T17:42:51.941Z,99.90
2019-05-19T17:45:19.099Z,99.90
2019-05-19T17:47:46.209Z,99.90
2019-05-19T17:50:14.129Z,99.90
2019-05-19T17:52:41.015Z,99.90
2019-05-19T17:55:08.501Z,99.90
2019-05-19T17:57:36.147Z,99.90
2019-05-19T18:00:04.099Z,99.90
2019-05-19T18:02:31.007Z,99.90
2019-05-19T18:04:57.771Z,99.90
2019-05-19T18:07:24.695Z,99.90
2019-05-19T18:09:51.652Z,99.90
2019-05-19T18:12:18.504Z,99.90
2019-05-19T18:14:45.351Z,99.90
2019-05-19T18:17:12.266Z,99.90
2019-05-19T18:19:39.118Z,99.90
2019-05-19T18:22:06.132Z,99.90
2019-05-19T18:24:32.868Z,99.90
2019-05-19T18:26:59.576Z,99.90
2019-05-19T18:29:31.231Z,99.90
2019-05-19T18:31:55.402Z,99.90
2019-05-19T18:34:22.283Z,99.90
2019-05-19T18:36:49.192Z,99.90
2019-05-19T18:39:16.176Z,99.90
2019-05-19T18:41:43.178Z,99.90
2019-05-19T18:44:09.935Z,99.90
2019-05-19T18:46:36.883Z,99.90
2019-05-19T18:49:03.907Z,99.90
2019-05-19T18:51:30.677Z,99.90
2019-05-19T18:53:57.562Z,99.90
2019-05-19T18:56:24.312Z,99.90
2019-05-19T18:58:51.477Z,99.90
2019-05-19T19:01:18.363Z,99.90
2019-05-19T19:03:45.431Z,99.90
2019-05-19T19:06:12.415Z,99.90
2019-05-19T19:08:39.460Z,99.90
2019-05-19T19:11:06.382Z,99.90
2019-05-19T19:13:33.300Z,99.90
2019-05-19T19:16:00.347Z,99.90
2019-05-19T19:18:27.463Z,99.90
2019-05-19T19:20:54.242Z,99.90
2019-05-19T19:23:21.044Z,99.90
2019-05-19T19:25:48.027Z,99.90
2019-05-19T19:28:14.780Z,99.90
2019-05-19T19:30:41.979Z,99.90
2019-05-19T19:33:08.797Z,99.90
2019-05-19T19:35:39.180Z,99.90
2019-05-19T19:38:04.466Z,99.90
2019-05-19T19:40:31.543Z,99.90
2019-05-19T19:42:59.524Z,99.90
2019-05-19T19:45:26.495Z,99.90
2019-05-19T19:47:54.025Z,99.90
2019-05-19T19:50:21.192Z,99.90
2019-05-19T19:52:48.100Z,99.90
2019-05-19T19:55:15.105Z,99.90
2019-05-19T19:57:42.231Z,99.90
2019-05-19T20:00:17.995Z,99.90
2019-05-19T20:02:38.379Z,99.90
2019-05-19T20:05:06.458Z,99.90
2019-05-19T20:07:34.319Z,99.90
2019-05-19T20:10:01.205Z,99.90
2019-05-19T20:12:28.039Z,99.90
2019-05-19T20:14:54.778Z,99.90
2019-05-19T20:17:21.534Z,99.90
2019-05-19T20:19:48.256Z,99.90
2019-05-19T20:22:15.090Z,99.90
2019-05-19T20:24:41.863Z,99.90
2019-05-19T20:27:08.807Z,99.90
2019-05-19T20:29:35.783Z,99.90
2019-05-19T20:32:02.619Z,99.90
2019-05-19T20:34:29.462Z,99.90
2019-05-19T20:36:56.219Z,99.90
2019-05-19T20:39:23.011Z,99.90
2019-05-19T20:41:49.895Z,99.90
2019-05-19T20:44:16.747Z,99.90
2019-05-19T20:46:43.608Z,99.90
2019-05-19T20:49:10.395Z,99.90
2019-05-19T20:51:37.217Z,99.90
2019-05-19T20:54:04.063Z,99.90
2019-05-19T20:56:30.796Z,99.90
2019-05-19T20:58:57.526Z,99.90
2019-05-19T21:01:24.443Z,99.90
2019-05-19T21:03:51.208Z,99.90
2019-05-19T21:06:18.051Z,99.90
2019-05-19T21:08:45.039Z,99.90
2019-05-19T21:11:11.936Z,99.90
2019-05-19T21:13:38.711Z,99.90
2019-05-19T21:16:05.701Z,99.90
2019-05-19T21:18:32.645Z,99.90
2019-05-19T21:20:59.489Z,99.90
2019-05-19T21:23:26.221Z,99.90
2019-05-19T21:25:53.101Z,99.90
2019-05-19T21:28:19.968Z,99.90
2019-05-19T21:30:47.435Z,99.90
2019-05-19T21:33:14.171Z,99.90
2019-05-19T21:35:40.899Z,99.90
2019-05-19T21:38:07.859Z,99.90
2019-05-19T21:40:34.741Z,99.90
2019-05-19T21:43:01.671Z,99.90
2019-05-19T21:45:28.567Z,99.90
2019-05-19T21:47:55.455Z,99.90
2019-05-19T21:50:56.107Z,99.90
2019-05-19T21:53:22.830Z,99.90
2019-05-19T21:55:49.539Z,99.90
2019-05-19T21:58:16.271Z,99.90
2019-05-19T22:00:44.011Z,99.90
2019-05-19T22:03:10.936Z,99.90
2019-05-19T22:05:51.201Z,99.90
2019-05-19T22:08:12.500Z,99.90
2019-05-19T22:10:39.380Z,99.90
2019-05-19T22:13:06.279Z,99.90
2019-05-19T22:15:33.265Z,99.90
2019-05-19T22:18:00.166Z,99.90
2019-05-19T22:20:26.893Z,99.90
2019-05-19T22:22:53.668Z,99.90
2019-05-19T22:25:20.479Z,99.90
2019-05-19T22:27:47.200Z,99.90
2019-05-19T22:30:14.610Z,99.90
2019-05-19T22:32:41.531Z,99.90
2019-05-19T22:35:11.519Z,99.90
2019-05-19T22:37:38.250Z,99.90
2019-05-19T22:40:05.264Z,99.90
2019-05-19T22:42:32.015Z,99.90
2019-05-19T22:45:01.323Z,99.90
2019-05-19T22:47:28.052Z,99.90
2019-05-19T22:49:54.853Z,99.90
2019-05-19T22:52:21.727Z,99.90
2019-05-19T22:54:48.845Z,99.90
2019-05-19T22:57:18.026Z,99.90
2019-05-19T22:59:44.222Z,99.90
2019-05-19T23:02:11.073Z,99.90
2019-05-19T23:04:37.988Z,99.90
2019-05-19T23:07:04.885Z,99.90
2019-05-19T23:09:31.799Z,99.90
2019-05-19T23:11:58.664Z,99.90
2019-05-19T23:14:25.657Z,99.90
2019-05-19T23:16:52.629Z,99.90
2019-05-19T23:19:19.471Z,99.90
2019-05-19T23:21:46.315Z,99.90
2019-05-19T23:24:13.063Z,99.90
2019-05-19T23:26:39.923Z,99.90
2019-05-19T23:29:06.755Z,99.90
2019-05-19T23:31:33.533Z,99.90
2019-05-19T23:34:00.436Z,99.90
2019-05-19T23:36:27.158Z,99.90
2019-05-19T23:38:53.962Z,99.90
2019-05-19T23:41:20.693Z,99.90
2019-05-19T23:43:47.419Z,99.90
2019-05-19T23:46:14.165Z,99.90
2019-05-19T23:48:41.040Z,99.90
2019-05-19T23:51:07.911Z,99.90
2019-05-19T23:53:34.770Z,99.90
2019-05-19T23:56:01.627Z,99.90
2019-05-19T23:58:28.356Z,99.90
